This is the latest recevied weather packets stored in our database for station/object KK7ISX. If no packets are shown the sender has not sent any weather packets the latest 10 day(s).
| Time | Temp. | Humidity | Pressure | Rain* | Wind** | Luminosity | Snow |
|---|---|---|---|---|---|---|---|
| 1777954683 | 20.56° C | 43% | 1004.2 hPa | 0 mm | - | 0 W/m² | - |
| 1777954381 | 21.11° C | 41% | 1004.2 hPa | 0 mm | - | 0 W/m² | - |
| 1777954078 | 21.11° C | 40% | 1004.1 hPa | 0 mm | - | 0 W/m² | - |
| 1777943761 | 27.22° C | 28% | 1003.4 hPa | 0 mm | - | 113 W/m² | - |
| 1777943458 | 26.67° C | 28% | 1003.4 hPa | 0 mm | - | 97 W/m² | - |
| 1777943153 | 26.67° C | 29% | 1003.3 hPa | 0 mm | - | 105 W/m² | - |
| 1777942850 | 27.22° C | 29% | 1003.4 hPa | 0 mm | - | 145 W/m² | - |
| 1777942546 | 27.22° C | 28% | 1003.5 hPa | 0 mm | - | 152 W/m² | - |
| 1777941941 | 27.22° C | 25% | 1003.5 hPa | 0 mm | - | 180 W/m² | - |
| 1777941335 | 27.22° C | 25% | 1003.9 hPa | 0 mm | - | 187 W/m² | - |
| 1777940431 | 27.22° C | 24% | 1003.9 hPa | 0 mm | - | 232 W/m² | - |
| 1777940128 | 27.78° C | 25% | 1004 hPa | 0 mm | - | 245 W/m² | - |
| 1777939825 | 27.22° C | 24% | 1003.8 hPa | 0 mm | - | 251 W/m² | - |
| 1777939523 | 27.22° C | 24% | 1004 hPa | 0 mm | - | 271 W/m² | - |
| 1777937400 | 27.22° C | 27% | 1004.2 hPa | 0 mm | - | 367 W/m² | - |
| 1777937097 | 27.22° C | 27% | 1004.2 hPa | 0 mm | - | 381 W/m² | - |
| 1777934672 | 26.67° C | 30% | 1005 hPa | 0 mm | - | 488 W/m² | - |
| 1777934370 | 26.67° C | 30% | 1004.8 hPa | 0 mm | - | 500 W/m² | - |
| 1777933761 | 26.11° C | 29% | 1005 hPa | 0 mm | - | 521 W/m² | - |
| 1777931641 | 26.67° C | 30% | 1005.5 hPa | 0 mm | - | 604 W/m² | - |
| 1777931034 | 25.56° C | 32% | 1005.8 hPa | 0 mm | - | 624 W/m² | - |
| 1777930731 | 26.11° C | 33% | 1005.7 hPa | 0 mm | - | 631 W/m² | - |
| 1777930124 | 25.56° C | 32% | 1005.8 hPa | 0 mm | - | 648 W/m² | - |
| 1777929820 | 25° C | 34% | 1005.9 hPa | 0 mm | - | 657 W/m² | - |
| 1777929518 | 25° C | 35% | 1005.9 hPa | 0 mm | - | 665 W/m² | - |
* Rain latest hour (hover to see other rain measurements)
** Current wind speed in m/s (hover to see current wind gust speed)